sensor_id;sensor_type;location;lat;lon;timestamp;pressure;altitude;pressure_sealevel;temperature;humidity
47260;BME280;32999;52.412;4.890;2023-04-23T00:02:44;100803.09;;;9.62;100.00
47260;BME280;32999;52.412;4.890;2023-04-23T00:07:49;100785.28;;;9.39;100.00
47260;BME280;32999;52.412;4.890;2023-04-23T00:12:51;100703.81;;;8.91;100.00
47260;BME280;32999;52.412;4.890;2023-04-23T00:17:54;100784.59;;;9.60;100.00
47260;BME280;32999;52.412;4.890;2023-04-23T00:22:56;100696.38;;;9.09;100.00
47260;BME280;32999;52.412;4.890;2023-04-23T00:27:58;100784.22;;;9.63;100.00
47260;BME280;32999;52.412;4.890;2023-04-23T00:33:01;100782.34;;;9.49;100.00
47260;BME280;32999;52.412;4.890;2023-04-23T00:38:03;100771.38;;;9.44;100.00
47260;BME280;32999;52.412;4.890;2023-04-23T00:43:05;100775.63;;;9.38;100.00
47260;BME280;32999;52.412;4.890;2023-04-23T00:48:10;100770.81;;;9.34;100.00
47260;BME280;32999;52.412;4.890;2023-04-23T00:53:13;100759.03;;;9.28;100.00
47260;BME280;32999;52.412;4.890;2023-04-23T00:58:15;100768.34;;;9.47;100.00
47260;BME280;32999;52.412;4.890;2023-04-23T01:03:18;100754.00;;;9.48;100.00
47260;BME280;32999;52.412;4.890;2023-04-23T01:08:22;100745.75;;;9.58;100.00
47260;BME280;32999;52.412;4.890;2023-04-23T01:13:25;100747.03;;;9.76;100.00
47260;BME280;32999;52.412;4.890;2023-04-23T01:18:30;100734.97;;;9.95;100.00
47260;BME280;32999;52.412;4.890;2023-04-23T01:23:33;100745.03;;;10.08;100.00
47260;BME280;32999;52.412;4.890;2023-04-23T01:28:35;100698.06;;;9.99;100.00
47260;BME280;32999;52.412;4.890;2023-04-23T01:33:38;100655.25;;;9.92;100.00
47260;BME280;32999;52.412;4.890;2023-04-23T01:38:42;100610.69;;;9.57;100.00
47260;BME280;32999;52.412;4.890;2023-04-23T01:43:44;100722.00;;;10.21;100.00
47260;BME280;32999;52.412;4.890;2023-04-23T01:48:46;100639.56;;;9.82;100.00
47260;BME280;32999;52.412;4.890;2023-04-23T01:53:49;100708.75;;;10.28;100.00
47260;BME280;32999;52.412;4.890;2023-04-23T01:58:52;100683.69;;;10.14;100.00
47260;BME280;32999;52.412;4.890;2023-04-23T02:03:54;100689.94;;;10.36;100.00
47260;BME280;32999;52.412;4.890;2023-04-23T02:08:59;100699.56;;;10.52;100.00
47260;BME280;32999;52.412;4.890;2023-04-23T02:14:02;100628.53;;;10.21;100.00
47260;BME280;32999;52.412;4.890;2023-04-23T02:19:04;100570.56;;;10.01;100.00
47260;BME280;32999;52.412;4.890;2023-04-23T02:24:07;100669.03;;;10.82;100.00
47260;BME280;32999;52.412;4.890;2023-04-23T02:29:09;100679.97;;;10.87;100.00
47260;BME280;32999;52.412;4.890;2023-04-23T02:34:10;100640.28;;;10.63;100.00
47260;BME280;32999;52.412;4.890;2023-04-23T02:39:13;100589.81;;;10.53;100.00
47260;BME280;32999;52.412;4.890;2023-04-23T02:44:16;100660.06;;;10.97;100.00
47260;BME280;32999;52.412;4.890;2023-04-23T02:49:17;100647.72;;;10.96;100.00
47260;BME280;32999;52.412;4.890;2023-04-23T02:54:21;100659.59;;;10.65;100.00
47260;BME280;32999;52.412;4.890;2023-04-23T02:59:23;100662.72;;;10.47;100.00
47260;BME280;32999;52.412;4.890;2023-04-23T03:04:25;100671.44;;;10.35;100.00
47260;BME280;32999;52.412;4.890;2023-04-23T03:09:28;100667.13;;;10.04;100.00
47260;BME280;32999;52.412;4.890;2023-04-23T03:14:31;100655.72;;;10.10;100.00
47260;BME280;32999;52.412;4.890;2023-04-23T03:19:33;100654.94;;;10.31;100.00
47260;BME280;32999;52.412;4.890;2023-04-23T03:24:36;100673.28;;;10.19;100.00
47260;BME280;32999;52.412;4.890;2023-04-23T03:29:38;100659.13;;;10.04;100.00
47260;BME280;32999;52.412;4.890;2023-04-23T03:34:39;100651.72;;;9.85;100.00
47260;BME280;32999;52.412;4.890;2023-04-23T03:39:42;100607.66;;;9.60;100.00
47260;BME280;32999;52.412;4.890;2023-04-23T03:44:44;100608.63;;;9.73;100.00
47260;BME280;32999;52.412;4.890;2023-04-23T03:49:46;100649.16;;;10.13;100.00
47260;BME280;32999;52.412;4.890;2023-04-23T03:54:50;100648.53;;;10.11;100.00
47260;BME280;32999;52.412;4.890;2023-04-23T03:59:54;100631.84;;;10.23;100.00
47260;BME280;32999;52.412;4.890;2023-04-23T04:04:56;100620.97;;;10.46;100.00
47260;BME280;32999;52.412;4.890;2023-04-23T04:09:59;100490.50;;;9.29;100.00
47260;BME280;32999;52.412;4.890;2023-04-23T04:15:02;100621.44;;;10.14;100.00
47260;BME280;32999;52.412;4.890;2023-04-23T04:20:05;100591.34;;;9.69;100.00
47260;BME280;32999;52.412;4.890;2023-04-23T04:25:09;100638.38;;;10.21;100.00
47260;BME280;32999;52.412;4.890;2023-04-23T04:30:12;100533.78;;;9.60;100.00
47260;BME280;32999;52.412;4.890;2023-04-23T04:35:14;100628.22;;;10.52;100.00
47260;BME280;32999;52.412;4.890;2023-04-23T04:40:17;100650.44;;;10.53;100.00
47260;BME280;32999;52.412;4.890;2023-04-23T04:45:19;100634.78;;;10.71;100.00
47260;BME280;32999;52.412;4.890;2023-04-23T04:50:21;100627.38;;;10.73;100.00
47260;BME280;32999;52.412;4.890;2023-04-23T04:55:25;100528.47;;;10.03;100.00
47260;BME280;32999;52.412;4.890;2023-04-23T05:00:28;100626.97;;;10.98;100.00
47260;BME280;32999;52.412;4.890;2023-04-23T05:05:31;100545.03;;;10.55;100.00
47260;BME280;32999;52.412;4.890;2023-04-23T05:10:35;100622.13;;;11.08;100.00
47260;BME280;32999;52.412;4.890;2023-04-23T05:15:36;100625.19;;;11.05;100.00
47260;BME280;32999;52.412;4.890;2023-04-23T05:20:38;100620.78;;;10.69;100.00
47260;BME280;32999;52.412;4.890;2023-04-23T05:25:41;100556.16;;;10.59;100.00
47260;BME280;32999;52.412;4.890;2023-04-23T05:30:43;100630.28;;;11.00;100.00
47260;BME280;32999;52.412;4.890;2023-04-23T05:35:45;100531.31;;;10.37;100.00
47260;BME280;32999;52.412;4.890;2023-04-23T05:40:48;100623.59;;;11.17;100.00
47260;BME280;32999;52.412;4.890;2023-04-23T05:45:50;100628.97;;;11.17;100.00
47260;BME280;32999;52.412;4.890;2023-04-23T05:50:52;100577.19;;;10.97;100.00
47260;BME280;32999;52.412;4.890;2023-04-23T05:55:56;100630.41;;;10.91;100.00
47260;BME280;32999;52.412;4.890;2023-04-23T06:00:58;100633.72;;;10.94;100.00
47260;BME280;32999;52.412;4.890;2023-04-23T06:05:59;100571.28;;;10.52;100.00
47260;BME280;32999;52.412;4.890;2023-04-23T06:11:03;100610.28;;;11.23;100.00
47260;BME280;32999;52.412;4.890;2023-04-23T06:16:05;100606.53;;;11.18;100.00
47260;BME280;32999;52.412;4.890;2023-04-23T06:21:07;100548.22;;;11.00;100.00
47260;BME280;32999;52.412;4.890;2023-04-23T06:26:11;100620.94;;;11.51;100.00
47260;BME280;32999;52.412;4.890;2023-04-23T06:31:13;100602.25;;;11.65;100.00
47260;BME280;32999;52.412;4.890;2023-04-23T06:36:14;100619.25;;;11.78;100.00
47260;BME280;32999;52.412;4.890;2023-04-23T06:41:18;100518.19;;;11.46;100.00
47260;BME280;32999;52.412;4.890;2023-04-23T06:46:20;100642.38;;;12.60;100.00
47260;BME280;32999;52.412;4.890;2023-04-23T06:51:24;100598.84;;;13.24;100.00
47260;BME280;32999;52.412;4.890;2023-04-23T06:56:27;100485.56;;;12.95;100.00
47260;BME280;32999;52.412;4.890;2023-04-23T07:01:29;100494.75;;;13.33;100.00
47260;BME280;32999;52.412;4.890;2023-04-23T07:06:31;100566.25;;;13.72;100.00
47260;BME280;32999;52.412;4.890;2023-04-23T07:11:35;100567.78;;;14.30;100.00
47260;BME280;32999;52.412;4.890;2023-04-23T07:16:37;100564.81;;;14.39;100.00
47260;BME280;32999;52.412;4.890;2023-04-23T07:21:39;100525.25;;;15.14;100.00
47260;BME280;32999;52.412;4.890;2023-04-23T07:26:42;100518.84;;;15.15;100.00
47260;BME280;32999;52.412;4.890;2023-04-23T07:31:43;100445.72;;;15.00;100.00
47260;BME280;32999;52.412;4.890;2023-04-23T07:36:45;100464.28;;;15.08;100.00
47260;BME280;32999;52.412;4.890;2023-04-23T07:41:48;100551.75;;;15.72;100.00
47260;BME280;32999;52.412;4.890;2023-04-23T07:46:50;100417.28;;;15.22;100.00
47260;BME280;32999;52.412;4.890;2023-04-23T07:51:52;100512.16;;;15.72;100.00
47260;BME280;32999;52.412;4.890;2023-04-23T07:56:55;100544.72;;;16.42;100.00
47260;BME280;32999;52.412;4.890;2023-04-23T08:01:57;100511.63;;;16.23;100.00
47260;BME280;32999;52.412;4.890;2023-04-23T08:06:59;100542.25;;;16.41;100.00
47260;BME280;32999;52.412;4.890;2023-04-23T08:12:02;100549.00;;;17.20;100.00
47260;BME280;32999;52.412;4.890;2023-04-23T08:17:04;100411.16;;;17.15;100.00
47260;BME280;32999;52.412;4.890;2023-04-23T08:22:05;100415.03;;;17.47;100.00
47260;BME280;32999;52.412;4.890;2023-04-23T08:27:09;100403.41;;;17.63;100.00
47260;BME280;32999;52.412;4.890;2023-04-23T08:32:11;100437.53;;;17.64;100.00
47260;BME280;32999;52.412;4.890;2023-04-23T08:37:13;100505.28;;;18.03;100.00
47260;BME280;32999;52.412;4.890;2023-04-23T08:42:22;100456.25;;;17.99;100.00
47260;BME280;32999;52.412;4.890;2023-04-23T08:47:28;100468.16;;;18.15;100.00
47260;BME280;32999;52.412;4.890;2023-04-23T08:52:32;100519.63;;;19.04;100.00
47260;BME280;32999;52.412;4.890;2023-04-23T08:57:37;100480.75;;;19.37;100.00
47260;BME280;32999;52.412;4.890;2023-04-23T09:02:42;100389.72;;;19.95;100.00
47260;BME280;32999;52.412;4.890;2023-04-23T09:07:44;100472.16;;;20.21;100.00
47260;BME280;32999;52.412;4.890;2023-04-23T09:12:47;100507.97;;;20.50;100.00
47260;BME280;32999;52.412;4.890;2023-04-23T09:17:49;100391.22;;;19.81;100.00
47260;BME280;32999;52.412;4.890;2023-04-23T09:22:51;100495.66;;;22.09;100.00
47260;BME280;32999;52.412;4.890;2023-04-23T09:27:57;100473.44;;;21.39;100.00
47260;BME280;32999;52.412;4.890;2023-04-23T09:32:59;100460.22;;;20.54;100.00
47260;BME280;32999;52.412;4.890;2023-04-23T09:38:01;100482.72;;;20.49;100.00
47260;BME280;32999;52.412;4.890;2023-04-23T09:43:09;100472.50;;;22.37;100.00
47260;BME280;32999;52.412;4.890;2023-04-23T09:48:11;100441.75;;;22.47;89.98
47260;BME280;32999;52.412;4.890;2023-04-23T09:53:13;100472.06;;;23.25;92.82
47260;BME280;32999;52.412;4.890;2023-04-23T09:58:16;100502.47;;;22.22;97.74
47260;BME280;32999;52.412;4.890;2023-04-23T10:03:25;100492.09;;;22.80;89.81
47260;BME280;32999;52.412;4.890;2023-04-23T10:08:27;100459.47;;;23.88;81.07
47260;BME280;32999;52.412;4.890;2023-04-23T10:13:33;100458.53;;;23.64;80.86
47260;BME280;32999;52.412;4.890;2023-04-23T10:18:35;100473.44;;;23.77;83.73
47260;BME280;32999;52.412;4.890;2023-04-23T10:23:39;100476.88;;;22.43;84.34
47260;BME280;32999;52.412;4.890;2023-04-23T10:28:46;100455.53;;;23.65;78.26
47260;BME280;32999;52.412;4.890;2023-04-23T10:33:48;100379.50;;;23.88;76.10
47260;BME280;32999;52.412;4.890;2023-04-23T10:38:51;100371.84;;;23.01;77.04
47260;BME280;32999;52.412;4.890;2023-04-23T10:43:56;100402.53;;;22.48;76.29
47260;BME280;32999;52.412;4.890;2023-04-23T10:49:05;100440.28;;;21.43;91.13
47260;BME280;32999;52.412;4.890;2023-04-23T10:54:07;100433.78;;;21.59;88.97
47260;BME280;32999;52.412;4.890;2023-04-23T10:59:18;100341.88;;;21.86;86.67
47260;BME280;32999;52.412;4.890;2023-04-23T11:09:39;100409.69;;;21.10;92.17
47260;BME280;32999;52.412;4.890;2023-04-23T11:14:45;100420.16;;;20.81;98.82
47260;BME280;32999;52.412;4.890;2023-04-23T11:20:08;100420.28;;;20.49;93.84
47260;BME280;32999;52.412;4.890;2023-04-23T11:25:11;100410.88;;;21.29;97.15
47260;BME280;32999;52.412;4.890;2023-04-23T11:30:18;100399.72;;;22.78;83.06
47260;BME280;32999;52.412;4.890;2023-04-23T11:35:22;100329.34;;;21.55;86.43
47260;BME280;32999;52.412;4.890;2023-04-23T11:40:27;100354.34;;;21.21;80.91
47260;BME280;32999;52.412;4.890;2023-04-23T11:45:31;100371.69;;;20.58;92.33
47260;BME280;32999;52.412;4.890;2023-04-23T11:50:33;100302.81;;;19.48;96.17
47260;BME280;32999;52.412;4.890;2023-04-23T11:55:36;100367.00;;;20.06;100.00
47260;BME280;32999;52.412;4.890;2023-04-23T12:00:44;100303.06;;;18.92;100.00
47260;BME280;32999;52.412;4.890;2023-04-23T12:16:32;100273.22;;;18.87;100.00
47260;BME280;32999;52.412;4.890;2023-04-23T12:21:34;100299.41;;;18.77;100.00
47260;BME280;32999;52.412;4.890;2023-04-23T12:26:49;100336.25;;;18.83;100.00
47260;BME280;32999;52.412;4.890;2023-04-23T12:31:57;100353.47;;;17.49;100.00
47260;BME280;32999;52.412;4.890;2023-04-23T12:37:04;100354.03;;;17.51;100.00
47260;BME280;32999;52.412;4.890;2023-04-23T12:42:07;100348.72;;;18.07;100.00
47260;BME280;32999;52.412;4.890;2023-04-23T12:47:11;100270.28;;;17.85;100.00
47260;BME280;32999;52.412;4.890;2023-04-23T12:52:15;100280.47;;;18.38;100.00
47260;BME280;32999;52.412;4.890;2023-04-23T12:57:16;100301.78;;;18.34;100.00
47260;BME280;32999;52.412;4.890;2023-04-23T13:02:24;100286.94;;;18.15;100.00
47260;BME280;32999;52.412;4.890;2023-04-23T13:13:14;100255.72;;;17.69;100.00
47260;BME280;32999;52.412;4.890;2023-04-23T13:18:17;100196.69;;;17.27;100.00
47260;BME280;32999;52.412;4.890;2023-04-23T13:23:19;100252.53;;;17.55;100.00
47260;BME280;32999;52.412;4.890;2023-04-23T13:28:21;100200.28;;;16.99;100.00
47260;BME280;32999;52.412;4.890;2023-04-23T13:33:24;100209.38;;;17.27;100.00
47260;BME280;32999;52.412;4.890;2023-04-23T13:38:26;100159.25;;;17.36;100.00
47260;BME280;32999;52.412;4.890;2023-04-23T13:43:28;100127.31;;;17.66;100.00
47260;BME280;32999;52.412;4.890;2023-04-23T13:48:33;100186.19;;;17.81;100.00
47260;BME280;32999;52.412;4.890;2023-04-23T13:53:35;100237.13;;;17.56;100.00
47260;BME280;32999;52.412;4.890;2023-04-23T13:59:30;100228.97;;;16.09;100.00
47260;BME280;32999;52.412;4.890;2023-04-23T14:04:21;100211.53;;;15.29;100.00
47260;BME280;32999;52.412;4.890;2023-04-23T14:09:24;100302.84;;;15.31;100.00
47260;BME280;32999;52.412;4.890;2023-04-23T14:14:26;100274.31;;;14.70;100.00
47260;BME280;32999;52.412;4.890;2023-04-23T14:19:32;100292.22;;;13.85;100.00
47260;BME280;32999;52.412;4.890;2023-04-23T14:24:38;100301.31;;;13.84;100.00
47260;BME280;32999;52.412;4.890;2023-04-23T14:29:45;100309.06;;;13.92;100.00
47260;BME280;32999;52.412;4.890;2023-04-23T14:34:56;100302.50;;;13.88;100.00
47260;BME280;32999;52.412;4.890;2023-04-23T14:40:04;100189.44;;;13.28;100.00
47260;BME280;32999;52.412;4.890;2023-04-23T14:45:10;100178.78;;;13.21;100.00
47260;BME280;32999;52.412;4.890;2023-04-23T14:50:15;100300.28;;;14.03;100.00
47260;BME280;32999;52.412;4.890;2023-04-23T14:55:17;100209.88;;;13.54;100.00
47260;BME280;32999;52.412;4.890;2023-04-23T15:00:21;100195.47;;;13.48;100.00
47260;BME280;32999;52.412;4.890;2023-04-23T15:05:24;100159.81;;;13.16;100.00
47260;BME280;32999;52.412;4.890;2023-04-23T15:10:26;100312.53;;;13.99;100.00
47260;BME280;32999;52.412;4.890;2023-04-23T15:15:36;100263.94;;;14.01;100.00
47260;BME280;32999;52.412;4.890;2023-04-23T15:20:39;100280.13;;;14.12;100.00
47260;BME280;32999;52.412;4.890;2023-04-23T15:25:42;100248.63;;;14.01;100.00
47260;BME280;32999;52.412;4.890;2023-04-23T15:30:44;100210.09;;;13.71;100.00
47260;BME280;32999;52.412;4.890;2023-04-23T15:35:49;100305.69;;;14.21;100.00
47260;BME280;32999;52.412;4.890;2023-04-23T15:40:54;100253.31;;;13.87;100.00
47260;BME280;32999;52.412;4.890;2023-04-23T15:46:03;100249.16;;;13.48;100.00
47260;BME280;32999;52.412;4.890;2023-04-23T15:51:06;100249.69;;;13.57;100.00
47260;BME280;32999;52.412;4.890;2023-04-23T15:56:11;100171.53;;;13.22;100.00
47260;BME280;32999;52.412;4.890;2023-04-23T16:07:42;100167.53;;;13.31;100.00
47260;BME280;32999;52.412;4.890;2023-04-23T16:13:04;100269.44;;;13.87;100.00
47260;BME280;32999;52.412;4.890;2023-04-23T16:18:23;100300.28;;;13.60;100.00
47260;BME280;32999;52.412;4.890;2023-04-23T16:23:31;100125.44;;;12.50;100.00
47260;BME280;32999;52.412;4.890;2023-04-23T16:28:32;100254.38;;;13.37;100.00
47260;BME280;32999;52.412;4.890;2023-04-23T16:33:34;100209.94;;;13.22;100.00
47260;BME280;32999;52.412;4.890;2023-04-23T16:38:57;100163.06;;;12.62;100.00
47260;BME280;32999;52.412;4.890;2023-04-23T16:44:08;100101.06;;;12.27;100.00
47260;BME280;32999;52.412;4.890;2023-04-23T16:49:32;100142.38;;;12.76;100.00
47260;BME280;32999;52.412;4.890;2023-04-23T16:54:39;100223.91;;;13.00;100.00
47260;BME280;32999;52.412;4.890;2023-04-23T16:59:49;100069.38;;;11.73;100.00
47260;BME280;32999;52.412;4.890;2023-04-23T17:05:00;100121.06;;;11.80;100.00
47260;BME280;32999;52.412;4.890;2023-04-23T17:33:30;99993.69;;;11.08;100.00
47260;BME280;32999;52.412;4.890;2023-04-23T17:38:58;100039.53;;;11.69;100.00
47260;BME280;32999;52.412;4.890;2023-04-23T17:44:07;100128.38;;;12.04;100.00
47260;BME280;32999;52.412;4.890;2023-04-23T17:49:41;100127.63;;;12.29;100.00
47260;BME280;32999;52.412;4.890;2023-04-23T17:54:47;99945.06;;;11.24;100.00
47260;BME280;32999;52.412;4.890;2023-04-23T18:06:24;99956.47;;;11.44;100.00
47260;BME280;32999;52.412;4.890;2023-04-23T18:11:42;100076.34;;;11.87;100.00
47260;BME280;32999;52.412;4.890;2023-04-23T18:17:24;100020.03;;;11.55;100.00
47260;BME280;32999;52.412;4.890;2023-04-23T18:22:28;99957.69;;;11.48;100.00
47260;BME280;32999;52.412;4.890;2023-04-23T18:27:32;99982.91;;;11.72;100.00
47260;BME280;32999;52.412;4.890;2023-04-23T18:32:41;99964.31;;;11.39;100.00
47260;BME280;32999;52.412;4.890;2023-04-23T18:37:54;100034.84;;;12.03;100.00
47260;BME280;32999;52.412;4.890;2023-04-23T18:43:01;99903.22;;;10.91;100.00
47260;BME280;32999;52.412;4.890;2023-04-23T18:48:35;99985.38;;;11.67;100.00
47260;BME280;32999;52.412;4.890;2023-04-23T18:53:42;99965.50;;;11.56;100.00
47260;BME280;32999;52.412;4.890;2023-04-23T18:58:43;99985.25;;;11.55;100.00
47260;BME280;32999;52.412;4.890;2023-04-23T19:03:45;100016.06;;;11.65;100.00
47260;BME280;32999;52.412;4.890;2023-04-23T19:08:48;99997.66;;;11.43;100.00
47260;BME280;32999;52.412;4.890;2023-04-23T19:13:50;100015.91;;;11.59;100.00
47260;BME280;32999;52.412;4.890;2023-04-23T19:18:52;100010.69;;;11.27;100.00
47260;BME280;32999;52.412;4.890;2023-04-23T19:23:55;99993.25;;;11.11;100.00
47260;BME280;32999;52.412;4.890;2023-04-23T19:28:57;99921.19;;;10.71;100.00
47260;BME280;32999;52.412;4.890;2023-04-23T19:34:07;100003.47;;;11.34;100.00
47260;BME280;32999;52.412;4.890;2023-04-23T19:39:10;99996.06;;;11.29;100.00
47260;BME280;32999;52.412;4.890;2023-04-23T19:44:12;99985.19;;;11.24;100.00
47260;BME280;32999;52.412;4.890;2023-04-23T19:49:14;99983.75;;;11.21;100.00
47260;BME280;32999;52.412;4.890;2023-04-23T19:54:18;99976.34;;;11.23;100.00
47260;BME280;32999;52.412;4.890;2023-04-23T19:59:19;99974.91;;;11.21;100.00
47260;BME280;32999;52.412;4.890;2023-04-23T20:04:21;99977.13;;;11.37;100.00
47260;BME280;32999;52.412;4.890;2023-04-23T20:09:24;99968.47;;;11.35;100.00
47260;BME280;32999;52.412;4.890;2023-04-23T20:14:27;99856.91;;;10.40;100.00
47260;BME280;32999;52.412;4.890;2023-04-23T20:19:29;99964.00;;;11.16;100.00
47260;BME280;32999;52.412;4.890;2023-04-23T20:24:32;99949.66;;;11.55;100.00
47260;BME280;32999;52.412;4.890;2023-04-23T20:29:35;99928.56;;;11.34;100.00
47260;BME280;32999;52.412;4.890;2023-04-23T20:34:37;99930.75;;;11.43;100.00
47260;BME280;32999;52.412;4.890;2023-04-23T20:39:40;99852.53;;;10.65;100.00
47260;BME280;32999;52.412;4.890;2023-04-23T20:44:42;99946.06;;;11.36;100.00
47260;BME280;32999;52.412;4.890;2023-04-23T20:49:46;99913.94;;;11.36;100.00
47260;BME280;32999;52.412;4.890;2023-04-23T20:54:49;99900.91;;;11.46;100.00
47260;BME280;32999;52.412;4.890;2023-04-23T20:59:51;99838.28;;;10.84;100.00
47260;BME280;32999;52.412;4.890;2023-04-23T21:04:53;99872.13;;;11.04;100.00
47260;BME280;32999;52.412;4.890;2023-04-23T21:09:56;99889.03;;;11.36;100.00
47260;BME280;32999;52.412;4.890;2023-04-23T21:14:58;99820.53;;;10.97;100.00
47260;BME280;32999;52.412;4.890;2023-04-23T21:20:00;99831.38;;;11.08;100.00
47260;BME280;32999;52.412;4.890;2023-04-23T21:25:04;99887.78;;;11.70;100.00
47260;BME280;32999;52.412;4.890;2023-04-23T21:30:36;99876.91;;;11.65;100.00
47260;BME280;32999;52.412;4.890;2023-04-23T21:35:52;99871.53;;;11.96;100.00
47260;BME280;32999;52.412;4.890;2023-04-23T21:41:20;99740.25;;;11.10;100.00
47260;BME280;32999;52.412;4.890;2023-04-23T21:52:29;99869.00;;;12.26;100.00
47260;BME280;32999;52.412;4.890;2023-04-23T21:57:54;99736.66;;;11.22;100.00
47260;BME280;32999;52.412;4.890;2023-04-23T22:03:04;99788.72;;;11.76;100.00
47260;BME280;32999;52.412;4.890;2023-04-23T22:08:07;99793.00;;;12.02;100.00
47260;BME280;32999;52.412;4.890;2023-04-23T22:13:13;99887.56;;;12.46;100.00
47260;BME280;32999;52.412;4.890;2023-04-23T22:18:15;99861.63;;;12.21;100.00
47260;BME280;32999;52.412;4.890;2023-04-23T22:23:17;99741.91;;;11.85;100.00
47260;BME280;32999;52.412;4.890;2023-04-23T22:28:20;99839.78;;;12.61;100.00
47260;BME280;32999;52.412;4.890;2023-04-23T22:33:22;99839.84;;;12.73;100.00
47260;BME280;32999;52.412;4.890;2023-04-23T22:38:26;99845.72;;;12.81;100.00
47260;BME280;32999;52.412;4.890;2023-04-23T22:43:29;99798.53;;;12.44;100.00
47260;BME280;32999;52.412;4.890;2023-04-23T22:48:31;99846.56;;;12.82;100.00
47260;BME280;32999;52.412;4.890;2023-04-23T22:53:33;99848.09;;;12.89;100.00
47260;BME280;32999;52.412;4.890;2023-04-23T22:58:36;99775.59;;;12.48;100.00
47260;BME280;32999;52.412;4.890;2023-04-23T23:03:38;99853.09;;;12.86;100.00
47260;BME280;32999;52.412;4.890;2023-04-23T23:08:39;99806.00;;;12.60;100.00
47260;BME280;32999;52.412;4.890;2023-04-23T23:13:43;99832.69;;;12.67;100.00
47260;BME280;32999;52.412;4.890;2023-04-23T23:18:45;99735.38;;;12.00;100.00
47260;BME280;32999;52.412;4.890;2023-04-23T23:23:47;99795.25;;;12.23;100.00
47260;BME280;32999;52.412;4.890;2023-04-23T23:28:50;99835.38;;;12.48;100.00
47260;BME280;32999;52.412;4.890;2023-04-23T23:33:52;99847.91;;;12.54;100.00
47260;BME280;32999;52.412;4.890;2023-04-23T23:38:54;99837.09;;;12.43;100.00
47260;BME280;32999;52.412;4.890;2023-04-23T23:43:57;99809.34;;;11.94;100.00
47260;BME280;32999;52.412;4.890;2023-04-23T23:48:59;99841.56;;;11.56;100.00
47260;BME280;32999;52.412;4.890;2023-04-23T23:54:01;99804.31;;;11.30;100.00
47260;BME280;32999;52.412;4.890;2023-04-23T23:59:04;99848.78;;;11.55;100.00
